Time;durP1;ratioP1;P1;durP2;ratioP2;P2;SDS_P1;SDS_P2;PMS_P1;PMS_P2;Temp;Humidity;BMP_temperature;BMP_pressure;BME280_temperature;BME280_humidity;BME280_pressure;Samples;Min_cycle;Max_cycle;Signal;HPM_P1;HPM_P2
2021/05/21 00:00:06;;;;;;;3.50;3.20;;;;;;;;;;2096709;28;20036;-82
2021/05/21 00:01:06;;;;;;;3.53;2.85;;;;;;;;;;2089169;28;25082;-82
2021/05/21 00:02:07;;;;;;;1.92;1.73;;;;;;;;;;2089121;28;20132;-80
2021/05/21 00:03:07;;;;;;;1.50;1.40;;;;;;;;;;2096242;28;20044;-80
2021/05/21 00:04:07;;;;;;;2.60;1.67;;;;;;;;;;2098561;28;20798;-79
2021/05/21 00:05:08;;;;;;;1.70;1.60;;;;;;;;;;2105729;28;20032;-81
2021/05/21 00:06:09;;;;;;;2.55;1.67;;;;;;;;;;2105911;28;20516;-80
2021/05/21 00:07:09;;;;;;;2.28;1.52;;;;;;;;;;2097926;28;20036;-79
2021/05/21 00:08:10;;;;;;;3.13;1.80;;;;;;;;;;2096805;28;20048;-80
2021/05/21 00:09:11;;;;;;;2.10;1.90;;;;;;;;;;2097653;28;20059;-79
2021/05/21 00:10:12;;;;;;;3.65;2.45;;;;;;;;;;2097319;28;20401;-80
2021/05/21 00:11:13;;;;;;;2.65;2.22;;;;;;;;;;2098571;28;22212;-80
2021/05/21 00:12:13;;;;;;;1.70;1.60;;;;;;;;;;2098341;28;20410;-80
2021/05/21 00:13:13;;;;;;;3.90;3.20;;;;;;;;;;2098210;28;20132;-81
2021/05/21 00:14:14;;;;;;;2.85;2.55;;;;;;;;;;2098309;28;20513;-80
2021/05/21 00:15:15;;;;;;;7.55;5.95;;;;;;;;;;2097775;28;20044;-78
2021/05/21 00:16:16;;;;;;;14.77;9.88;;;;;;;;;;2096658;28;20401;-82
2021/05/21 00:17:16;;;;;;;5.05;3.97;;;;;;;;;;2098108;28;20067;-81
2021/05/21 00:18:16;;;;;;;4.13;3.67;;;;;;;;;;2096958;28;20043;-81
2021/05/21 00:19:17;;;;;;;6.43;3.65;;;;;;;;;;2097771;28;20040;-81
2021/05/21 00:20:18;;;;;;;4.00;2.35;;;;;;;;;;2097799;28;20060;-80
2021/05/21 00:21:18;;;;;;;6.35;4.05;;;;;;;;;;2098140;28;20025;-82
2021/05/21 00:22:19;;;;;;;4.25;2.70;;;;;;;;;;2097160;28;20142;-81
2021/05/21 00:23:19;;;;;;;1.98;1.45;;;;;;;;;;2089974;28;20068;-80
2021/05/21 00:24:19;;;;;;;1.90;1.60;;;;;;;;;;2090043;28;20382;-81
2021/05/21 00:25:20;;;;;;;5.18;3.60;;;;;;;;;;2089855;28;20065;-82
2021/05/21 00:26:20;;;;;;;3.28;2.20;;;;;;;;;;2089106;28;20048;-81
2021/05/21 00:27:20;;;;;;;3.08;1.85;;;;;;;;;;2089104;28;20130;-81
2021/05/21 00:28:21;;;;;;;2.25;1.80;;;;;;;;;;2090617;28;20066;-82
2021/05/21 00:29:21;;;;;;;2.38;2.10;;;;;;;;;;2090013;28;20033;-82
2021/05/21 00:30:21;;;;;;;3.45;2.75;;;;;;;;;;2089392;28;20075;-81
2021/05/21 00:31:22;;;;;;;11.88;8.40;;;;;;;;;;2090246;28;20128;-81
2021/05/21 00:32:22;;;;;;;13.95;11.05;;;;;;;;;;2089784;28;20044;-81
2021/05/21 00:33:22;;;;;;;8.32;6.53;;;;;;;;;;2090082;28;20045;-80
2021/05/21 00:34:23;;;;;;;3.10;2.63;;;;;;;;;;2090044;28;20045;-80
2021/05/21 00:35:23;;;;;;;3.30;2.50;;;;;;;;;;2089813;28;20104;-82
2021/05/21 00:36:23;;;;;;;3.60;2.42;;;;;;;;;;2089001;28;20040;-81
2021/05/21 00:37:24;;;;;;;2.60;2.20;;;;;;;;;;2089807;28;20064;-80
2021/05/21 00:38:24;;;;;;;4.95;4.07;;;;;;;;;;2097333;28;20049;-80
2021/05/21 00:39:24;;;;;;;2.10;1.90;;;;;;;;;;2097274;28;20036;-81
2021/05/21 00:40:25;;;;;;;4.25;2.80;;;;;;;;;;2097701;28;20143;-80
2021/05/21 00:41:26;;;;;;;4.68;2.42;;;;;;;;;;2098110;28;20040;-80
2021/05/21 00:42:26;;;;;;;2.80;2.60;;;;;;;;;;2098589;28;20028;-80
2021/05/21 00:43:27;;;;;;;3.65;3.10;;;;;;;;;;2098206;28;20037;-81
2021/05/21 00:44:27;;;;;;;4.88;2.72;;;;;;;;;;2097244;28;20461;-81
2021/05/21 00:45:27;;;;;;;3.35;2.95;;;;;;;;;;2088906;28;20067;-80
2021/05/21 00:46:28;;;;;;;5.13;4.05;;;;;;;;;;2105410;28;20138;-79
2021/05/21 00:47:29;;;;;;;4.90;3.75;;;;;;;;;;2093313;28;20110;-80
2021/05/21 00:48:29;;;;;;;5.00;3.70;;;;;;;;;;2089441;28;20098;-81
2021/05/21 00:49:29;;;;;;;5.03;3.58;;;;;;;;;;2089528;28;20481;-80
2021/05/21 00:50:30;;;;;;;11.88;8.55;;;;;;;;;;2088562;28;20049;-82
2021/05/21 00:51:30;;;;;;;5.07;3.75;;;;;;;;;;2089726;28;20509;-81
2021/05/21 00:52:33;;;;;;;7.72;4.43;;;;;;;;;;2089244;28;20044;-81
2021/05/21 00:53:34;;;;;;;9.35;6.03;;;;;;;;;;2089837;28;20150;-81
2021/05/21 00:54:35;;;;;;;7.97;5.40;;;;;;;;;;2089820;28;20025;-81
2021/05/21 00:55:36;;;;;;;17.60;11.95;;;;;;;;;;2089449;28;20079;-80
2021/05/21 00:56:36;;;;;;;15.52;10.73;;;;;;;;;;2089654;28;20847;-80
2021/05/21 00:57:37;;;;;;;12.55;8.85;;;;;;;;;;2089866;28;20052;-80
2021/05/21 00:58:37;;;;;;;6.93;5.90;;;;;;;;;;2090107;28;20036;-81
2021/05/21 00:59:38;;;;;;;10.73;7.50;;;;;;;;;;2089426;28;20036;-80
2021/05/21 01:00:38;;;;;;;6.22;3.92;;;;;;;;;;2089363;28;20040;-80
2021/05/21 01:01:39;;;;;;;3.97;3.22;;;;;;;;;;2090821;28;20044;-80
2021/05/21 01:02:39;;;;;;;5.00;2.22;;;;;;;;;;2097633;28;20041;-81
2021/05/21 01:03:40;;;;;;;9.32;6.63;;;;;;;;;;2096962;28;20074;-81
2021/05/21 01:04:41;;;;;;;5.35;4.10;;;;;;;;;;2097149;28;20507;-82
2021/05/21 01:05:41;;;;;;;5.05;3.97;;;;;;;;;;2096652;28;20082;-79
2021/05/21 01:06:41;;;;;;;5.47;3.80;;;;;;;;;;2095271;28;20062;-80
2021/05/21 01:07:42;;;;;;;22.00;14.95;;;;;;;;;;2094361;28;20032;-80
2021/05/21 01:08:42;;;;;;;5.70;4.47;;;;;;;;;;2096749;28;20044;-80
2021/05/21 01:09:42;;;;;;;5.30;4.45;;;;;;;;;;2095734;28;20116;-80
2021/05/21 01:10:44;;;;;;;5.60;3.67;;;;;;;;;;2096591;28;20111;-80
2021/05/21 01:11:45;;;;;;;2.78;2.05;;;;;;;;;;2097371;28;20064;-80
2021/05/21 01:12:45;;;;;;;2.20;1.88;;;;;;;;;;2096512;28;20051;-81
2021/05/21 01:13:46;;;;;;;2.10;1.90;;;;;;;;;;2096708;28;20048;-80
2021/05/21 01:14:54;;;;;;;2.30;1.50;;;;;;;;;;2096474;28;20049;-80
2021/05/21 01:15:55;;;;;;;2.53;1.50;;;;;;;;;;2088939;28;20059;-81
2021/05/21 01:16:55;;;;;;;2.05;1.70;;;;;;;;;;2087687;28;20047;-80
2021/05/21 01:17:56;;;;;;;2.78;1.75;;;;;;;;;;2079137;28;20037;-81
2021/05/21 01:19:02;;;;;;;2.28;1.42;;;;;;;;;;2087871;28;20490;-80
2021/05/21 01:20:06;;;;;;;1.80;1.70;;;;;;;;;;2088110;28;20083;-80
2021/05/21 01:21:07;;;;;;;1.73;1.20;;;;;;;;;;2087307;28;20044;-80
2021/05/21 01:22:08;;;;;;;2.38;1.60;;;;;;;;;;2088304;28;20148;-80
2021/05/21 01:23:09;;;;;;;1.38;1.25;;;;;;;;;;2088245;28;20051;-81
2021/05/21 01:24:10;;;;;;;2.08;1.40;;;;;;;;;;2089338;28;20107;-80
2021/05/21 01:25:11;;;;;;;2.30;1.50;;;;;;;;;;2088939;28;20642;-80
2021/05/21 01:26:13;;;;;;;1.77;1.48;;;;;;;;;;2089578;28;20182;-80
2021/05/21 01:27:14;;;;;;;1.50;1.40;;;;;;;;;;2089595;28;20036;-81
2021/05/21 01:28:16;;;;;;;3.33;1.60;;;;;;;;;;2089123;28;20536;-81
2021/05/21 01:29:16;;;;;;;1.83;1.33;;;;;;;;;;2089455;28;20056;-80
2021/05/21 01:30:18;;;;;;;1.58;1.48;;;;;;;;;;2088780;28;20041;-82
2021/05/21 01:31:18;;;;;;;1.52;1.40;;;;;;;;;;2089210;28;20040;-81
2021/05/21 01:32:19;;;;;;;1.75;1.60;;;;;;;;;;2094003;28;20608;-81
2021/05/21 01:33:20;;;;;;;2.03;1.30;;;;;;;;;;2097504;28;20040;-80
2021/05/21 01:34:21;;;;;;;1.60;1.50;;;;;;;;;;2098117;28;20033;-80
2021/05/21 01:35:21;;;;;;;2.05;1.42;;;;;;;;;;2097488;28;20048;-81
2021/05/21 01:36:22;;;;;;;3.42;1.45;;;;;;;;;;2097991;28;20108;-82
2021/05/21 01:37:23;;;;;;;2.25;1.58;;;;;;;;;;2094283;28;20051;-80
2021/05/21 01:38:23;;;;;;;2.97;1.50;;;;;;;;;;2096147;28;20041;-80
2021/05/21 01:39:24;;;;;;;2.78;1.40;;;;;;;;;;2096501;28;20509;-81
2021/05/21 01:40:25;;;;;;;2.33;1.50;;;;;;;;;;2096711;28;21076;-80
2021/05/21 01:41:27;;;;;;;2.03;1.52;;;;;;;;;;2097861;28;20035;-81
2021/05/21 01:42:28;;;;;;;1.42;1.30;;;;;;;;;;2096547;28;20040;-80
2021/05/21 01:43:30;;;;;;;3.50;1.55;;;;;;;;;;2096714;28;20024;-82
2021/05/21 01:44:31;;;;;;;1.75;1.50;;;;;;;;;;2097891;28;20367;-80
2021/05/21 01:45:31;;;;;;;1.50;1.40;;;;;;;;;;2097303;28;20120;-80
2021/05/21 01:46:32;;;;;;;3.38;1.60;;;;;;;;;;2097381;28;20048;-80
2021/05/21 01:47:32;;;;;;;1.67;1.40;;;;;;;;;;2095814;28;20051;-80
2021/05/21 01:48:32;;;;;;;2.95;1.33;;;;;;;;;;2097391;28;20115;-81
2021/05/21 01:49:33;;;;;;;1.75;1.33;;;;;;;;;;2097594;28;20123;-82
2021/05/21 01:50:33;;;;;;;1.30;1.20;;;;;;;;;;2097508;28;20090;-80
2021/05/21 01:51:34;;;;;;;2.00;1.27;;;;;;;;;;2097716;28;20124;-80
2021/05/21 01:52:37;;;;;;;1.35;1.25;;;;;;;;;;2096038;28;20062;-81
2021/05/21 01:53:37;;;;;;;1.50;1.40;;;;;;;;;;2097351;28;20028;-81
2021/05/21 01:54:37;;;;;;;2.08;1.38;;;;;;;;;;2097184;28;20040;-80
2021/05/21 01:55:38;;;;;;;2.30;1.35;;;;;;;;;;2096389;28;20646;-79
2021/05/21 01:56:38;;;;;;;2.42;1.20;;;;;;;;;;2096798;28;20051;-81
2021/05/21 01:57:39;;;;;;;2.22;1.48;;;;;;;;;;2097298;28;20410;-80
2021/05/21 01:58:40;;;;;;;1.30;1.20;;;;;;;;;;2097886;28;20521;-81
2021/05/21 01:59:40;;;;;;;1.27;1.17;;;;;;;;;;2097211;28;20040;-80
2021/05/21 02:00:40;;;;;;;1.40;1.30;;;;;;;;;;2090866;28;20506;-80
2021/05/21 02:01:41;;;;;;;1.92;1.40;;;;;;;;;;2089360;28;20502;-80
2021/05/21 02:02:41;;;;;;;2.25;1.30;;;;;;;;;;2088858;28;20048;-80
2021/05/21 02:03:42;;;;;;;1.52;1.20;;;;;;;;;;2089270;28;20747;-81
2021/05/21 02:04:42;;;;;;;2.22;1.27;;;;;;;;;;2090857;28;20049;-80
2021/05/21 02:05:42;;;;;;;1.20;1.10;;;;;;;;;;2089424;28;20040;-81
2021/05/21 02:06:43;;;;;;;1.98;1.52;;;;;;;;;;2089508;28;20068;-82
2021/05/21 02:07:45;;;;;;;1.67;1.20;;;;;;;;;;2089507;28;20048;-82
2021/05/21 02:08:46;;;;;;;1.17;1.10;;;;;;;;;;2080128;28;20063;-81
2021/05/21 02:10:02;;;;;;;1.55;1.45;;;;;;;;;;2089429;28;20033;-82
2021/05/21 02:11:02;;;;;;;1.98;1.58;;;;;;;;;;2089944;28;20039;-81
2021/05/21 02:12:06;;;;;;;2.45;1.38;;;;;;;;;;2102197;28;20413;-82
2021/05/21 02:13:07;;;;;;;1.88;1.40;;;;;;;;;;2106243;28;20036;-80
2021/05/21 02:14:07;;;;;;;1.80;1.20;;;;;;;;;;2105461;28;20036;-80
2021/05/21 02:15:08;;;;;;;1.48;1.17;;;;;;;;;;2101805;28;20048;-80
2021/05/21 02:16:09;;;;;;;2.92;1.20;;;;;;;;;;2089508;28;20040;-82
2021/05/21 02:17:09;;;;;;;1.92;1.10;;;;;;;;;;2092555;28;20408;-82
2021/05/21 02:18:10;;;;;;;1.13;1.02;;;;;;;;;;2096820;28;20043;-81
2021/05/21 02:19:10;;;;;;;2.30;1.40;;;;;;;;;;2096787;28;20075;-80
2021/05/21 02:20:12;;;;;;;1.50;1.30;;;;;;;;;;2094571;28;20040;-80
2021/05/21 02:21:13;;;;;;;1.38;1.20;;;;;;;;;;2088618;28;20087;-80
2021/05/21 02:22:18;;;;;;;2.53;1.50;;;;;;;;;;2088219;28;20040;-81
2021/05/21 02:23:18;;;;;;;1.73;1.20;;;;;;;;;;2089641;28;20041;-81
2021/05/21 02:24:18;;;;;;;1.42;1.20;;;;;;;;;;2088967;28;20041;-80
2021/05/21 02:25:19;;;;;;;3.20;1.40;;;;;;;;;;2089328;28;20045;-81
2021/05/21 02:26:19;;;;;;;1.70;1.20;;;;;;;;;;2088511;28;20036;-80
2021/05/21 02:27:19;;;;;;;2.03;1.17;;;;;;;;;;2088952;28;20063;-81
2021/05/21 02:28:20;;;;;;;1.40;1.23;;;;;;;;;;2088904;28;20858;-80
2021/05/21 02:29:20;;;;;;;2.13;1.30;;;;;;;;;;2088560;28;20040;-82
2021/05/21 02:30:20;;;;;;;2.33;1.30;;;;;;;;;;2088004;28;20052;-82
2021/05/21 02:31:21;;;;;;;1.20;1.10;;;;;;;;;;2088367;28;20546;-80
2021/05/21 02:32:21;;;;;;;2.80;1.38;;;;;;;;;;2087980;28;20390;-80
2021/05/21 02:33:22;;;;;;;1.15;1.05;;;;;;;;;;2093464;28;20055;-80
2021/05/21 02:34:22;;;;;;;1.10;1.10;;;;;;;;;;2096982;28;20040;-80
2021/05/21 02:35:22;;;;;;;1.35;1.25;;;;;;;;;;2097788;28;20045;-80
2021/05/21 02:36:23;;;;;;;1.85;1.20;;;;;;;;;;2097770;28;20036;-82
2021/05/21 02:37:23;;;;;;;2.53;1.58;;;;;;;;;;2096391;28;20412;-81
2021/05/21 02:38:23;;;;;;;1.55;1.30;;;;;;;;;;2096806;28;20037;-80
2021/05/21 02:39:24;;;;;;;1.33;1.13;;;;;;;;;;2088070;28;20056;-80
2021/05/21 02:40:24;;;;;;;2.20;1.10;;;;;;;;;;2096291;28;20603;-81
2021/05/21 02:41:24;;;;;;;1.90;1.27;;;;;;;;;;2096244;28;20075;-80
2021/05/21 02:42:25;;;;;;;1.50;1.40;;;;;;;;;;2096014;28;20040;-81
2021/05/21 02:43:25;;;;;;;1.55;1.20;;;;;;;;;;2097686;28;20048;-81
2021/05/21 02:44:25;;;;;;;1.38;1.25;;;;;;;;;;2096038;28;20060;-80
2021/05/21 02:45:26;;;;;;;2.53;1.25;;;;;;;;;;2096493;28;20051;-80
2021/05/21 02:46:26;;;;;;;1.58;1.27;;;;;;;;;;2105073;28;20044;-80
2021/05/21 02:47:26;;;;;;;2.17;1.10;;;;;;;;;;2105597;28;20113;-81
2021/05/21 02:48:27;;;;;;;2.90;1.08;;;;;;;;;;2105539;28;20085;-81
2021/05/21 02:49:29;;;;;;;1.80;1.20;;;;;;;;;;2105759;28;20507;-80
2021/05/21 02:50:29;;;;;;;2.63;1.20;;;;;;;;;;2104758;28;20493;-80
2021/05/21 02:51:29;;;;;;;2.38;1.23;;;;;;;;;;2103641;28;20089;-81
2021/05/21 02:52:30;;;;;;;2.47;1.30;;;;;;;;;;2099081;28;20047;-81
2021/05/21 02:53:30;;;;;;;3.05;1.30;;;;;;;;;;2087192;28;20470;-81
2021/05/21 02:54:30;;;;;;;2.60;1.25;;;;;;;;;;2086325;28;20045;-81
2021/05/21 02:55:31;;;;;;;2.42;1.33;;;;;;;;;;2085916;28;20044;-82
2021/05/21 02:56:31;;;;;;;1.38;1.02;;;;;;;;;;2087465;28;20041;-81
2021/05/21 02:57:31;;;;;;;2.25;1.40;;;;;;;;;;2087099;28;20053;-81
2021/05/21 02:58:32;;;;;;;2.13;1.30;;;;;;;;;;2087037;28;20116;-82
2021/05/21 02:59:32;;;;;;;1.20;1.10;;;;;;;;;;2087022;28;20037;-82
2021/05/21 03:00:32;;;;;;;1.58;1.20;;;;;;;;;;2087786;28;20490;-83
2021/05/21 03:01:33;;;;;;;1.52;1.30;;;;;;;;;;2095438;28;20044;-81
2021/05/21 03:02:33;;;;;;;1.08;1.00;;;;;;;;;;2095331;28;20044;-81
2021/05/21 03:03:34;;;;;;;2.35;1.20;;;;;;;;;;2095133;28;20040;-82
2021/05/21 03:04:34;;;;;;;2.05;1.23;;;;;;;;;;2095560;28;20032;-81
2021/05/21 03:05:34;;;;;;;2.80;1.20;;;;;;;;;;2095106;28;20049;-81
2021/05/21 03:06:34;;;;;;;1.10;1.00;;;;;;;;;;2095582;28;20036;-82
2021/05/21 03:07:35;;;;;;;1.38;1.27;;;;;;;;;;2092669;28;20041;-82
2021/05/21 03:08:35;;;;;;;1.23;1.13;;;;;;;;;;2087096;28;20045;-81
2021/05/21 03:09:36;;;;;;;1.30;1.00;;;;;;;;;;2086372;28;20072;-81
2021/05/21 03:10:36;;;;;;;2.10;1.10;;;;;;;;;;2086618;28;20486;-81
2021/05/21 03:11:36;;;;;;;1.45;1.30;;;;;;;;;;2086833;28;20090;-81
2021/05/21 03:12:37;;;;;;;1.50;1.40;;;;;;;;;;2087067;28;20102;-81
2021/05/21 03:13:37;;;;;;;2.67;1.55;;;;;;;;;;2086695;28;20068;-81
2021/05/21 03:14:38;;;;;;;1.20;1.10;;;;;;;;;;2087215;28;20045;-82
2021/05/21 03:15:41;;;;;;;2.40;1.30;;;;;;;;;;2086144;28;20083;-82
2021/05/21 03:16:42;;;;;;;1.50;0.90;;;;;;;;;;2086337;28;20078;-81
2021/05/21 03:17:42;;;;;;;2.08;1.40;;;;;;;;;;2093568;28;20086;-81
2021/05/21 03:18:42;;;;;;;2.10;1.40;;;;;;;;;;2095093;28;20489;-82
2021/05/21 03:19:43;;;;;;;1.73;1.63;;;;;;;;;;2095117;28;20387;-81
2021/05/21 03:20:43;;;;;;;1.83;1.25;;;;;;;;;;2095085;28;20050;-81
2021/05/21 03:21:44;;;;;;;2.00;1.20;;;;;;;;;;2095361;28;20086;-81
2021/05/21 03:22:44;;;;;;;1.90;1.40;;;;;;;;;;2090536;28;20052;-80
2021/05/21 03:23:45;;;;;;;1.23;1.13;;;;;;;;;;2086921;28;20371;-81
2021/05/21 03:24:45;;;;;;;1.30;1.20;;;;;;;;;;2085696;28;20513;-81
2021/05/21 03:25:46;;;;;;;1.40;1.08;;;;;;;;;;2086312;28;20044;-83
2021/05/21 03:26:47;;;;;;;1.20;1.08;;;;;;;;;;2087255;28;21654;-81
2021/05/21 03:27:47;;;;;;;1.48;1.05;;;;;;;;;;2086233;28;20043;-81
2021/05/21 03:28:48;;;;;;;1.55;1.27;;;;;;;;;;2085837;28;20041;-81
2021/05/21 03:29:48;;;;;;;2.17;1.50;;;;;;;;;;2086742;28;20445;-81
2021/05/21 03:30:49;;;;;;;1.60;1.35;;;;;;;;;;2086504;28;20094;-82
2021/05/21 03:31:49;;;;;;;3.17;1.23;;;;;;;;;;2087028;28;20127;-82
2021/05/21 03:32:50;;;;;;;1.50;1.23;;;;;;;;;;2086736;28;20123;-81
2021/05/21 03:33:50;;;;;;;1.83;1.20;;;;;;;;;;2086058;28;20048;-81
2021/05/21 03:34:51;;;;;;;1.70;1.02;;;;;;;;;;2079144;28;20067;-82
2021/05/21 03:35:51;;;;;;;2.00;1.30;;;;;;;;;;2089786;28;20052;-83
2021/05/21 03:36:51;;;;;;;2.05;1.20;;;;;;;;;;2093924;28;20036;-84
2021/05/21 03:37:52;;;;;;;1.20;1.10;;;;;;;;;;2093645;28;20698;-81
2021/05/21 03:38:52;;;;;;;1.42;1.05;;;;;;;;;;2094519;28;20032;-83
2021/05/21 03:39:54;;;;;;;1.38;1.20;;;;;;;;;;2095068;28;20040;-82
2021/05/21 03:40:55;;;;;;;1.30;1.20;;;;;;;;;;2096574;28;20048;-82
2021/05/21 03:41:55;;;;;;;2.10;1.27;;;;;;;;;;2094391;28;20066;-82
2021/05/21 03:42:56;;;;;;;1.23;1.13;;;;;;;;;;2078969;28;20045;-81
2021/05/21 03:43:56;;;;;;;2.45;1.27;;;;;;;;;;2087401;28;21531;-81
2021/05/21 03:44:57;;;;;;;1.42;1.10;;;;;;;;;;2087636;28;20060;-81
2021/05/21 03:45:57;;;;;;;1.60;1.50;;;;;;;;;;2089097;28;20143;-82
2021/05/21 03:47:01;;;;;;;1.95;1.00;;;;;;;;;;2087200;28;20405;-81
2021/05/21 03:48:01;;;;;;;1.95;1.20;;;;;;;;;;2089295;28;20052;-82
2021/05/21 03:49:02;;;;;;;1.58;1.30;;;;;;;;;;2087683;28;20451;-82
2021/05/21 03:50:04;;;;;;;2.53;1.45;;;;;;;;;;2087728;28;20857;-81
2021/05/21 03:51:05;;;;;;;1.60;1.15;;;;;;;;;;2087559;28;20044;-83
2021/05/21 03:52:06;;;;;;;1.20;1.00;;;;;;;;;;2087811;28;20120;-82
2021/05/21 03:53:06;;;;;;;1.45;1.13;;;;;;;;;;2093401;28;20060;-82
2021/05/21 03:54:07;;;;;;;2.22;1.20;;;;;;;;;;2088127;28;20825;-81
2021/05/21 03:55:10;;;;;;;2.42;1.05;;;;;;;;;;2087194;28;20268;-81
2021/05/21 03:56:11;;;;;;;1.25;0.95;;;;;;;;;;2095420;28;20032;-82
2021/05/21 03:57:11;;;;;;;1.70;1.10;;;;;;;;;;2095223;28;20119;-82
2021/05/21 03:58:13;;;;;;;2.90;1.15;;;;;;;;;;2095005;28;20045;-82
2021/05/21 03:59:13;;;;;;;2.47;1.23;;;;;;;;;;2095310;28;20032;-83
2021/05/21 04:00:17;;;;;;;2.05;1.15;;;;;;;;;;2095980;28;20068;-82
2021/05/21 04:01:17;;;;;;;2.58;1.15;;;;;;;;;;2096555;28;20371;-81
2021/05/21 04:02:18;;;;;;;2.05;0.98;;;;;;;;;;2092372;28;20064;-81
2021/05/21 04:03:18;;;;;;;1.70;1.20;;;;;;;;;;2088309;28;20068;-83
2021/05/21 04:04:18;;;;;;;0.85;0.85;;;;;;;;;;2087228;28;20064;-82
2021/05/21 04:05:19;;;;;;;1.30;1.10;;;;;;;;;;2087264;28;20048;-81
2021/05/21 04:06:20;;;;;;;2.33;1.40;;;;;;;;;;2088682;28;20025;-83
2021/05/21 04:07:20;;;;;;;1.30;1.05;;;;;;;;;;2087983;28;20378;-82
2021/05/21 04:08:21;;;;;;;2.88;1.13;;;;;;;;;;2088473;28;20052;-82
2021/05/21 04:09:21;;;;;;;2.53;1.15;;;;;;;;;;2095292;28;20170;-82
2021/05/21 04:10:21;;;;;;;2.17;1.10;;;;;;;;;;2094847;28;20049;-81
2021/05/21 04:11:22;;;;;;;1.25;1.02;;;;;;;;;;2088084;28;20041;-81
2021/05/21 04:12:25;;;;;;;1.65;1.00;;;;;;;;;;2088680;28;20044;-81
2021/05/21 04:13:25;;;;;;;2.30;1.10;;;;;;;;;;2088317;28;20033;-82
2021/05/21 04:14:25;;;;;;;1.90;0.98;;;;;;;;;;2095685;28;20041;-82
2021/05/21 04:15:26;;;;;;;4.57;1.20;;;;;;;;;;2095569;28;20051;-83
2021/05/21 04:16:26;;;;;;;2.38;1.23;;;;;;;;;;2087892;28;20051;-81
2021/05/21 04:17:26;;;;;;;1.60;1.30;;;;;;;;;;2087792;28;20055;-83
2021/05/21 04:18:27;;;;;;;1.65;1.20;;;;;;;;;;2087566;28;20064;-81
2021/05/21 04:19:27;;;;;;;1.55;1.00;;;;;;;;;;2087957;28;20398;-82
2021/05/21 04:20:28;;;;;;;2.05;1.05;;;;;;;;;;2087651;28;20044;-82
2021/05/21 04:21:28;;;;;;;1.75;1.10;;;;;;;;;;2087870;28;20567;-82
2021/05/21 04:22:28;;;;;;;1.15;1.05;;;;;;;;;;2088304;28;20051;-83
2021/05/21 04:23:28;;;;;;;2.05;1.20;;;;;;;;;;2086824;28;20044;-81
2021/05/21 04:24:29;;;;;;;2.17;1.20;;;;;;;;;;2091271;28;20506;-81
2021/05/21 04:25:29;;;;;;;1.25;0.93;;;;;;;;;;2096164;28;20040;-81
2021/05/21 04:26:29;;;;;;;1.35;0.95;;;;;;;;;;2096376;28;20121;-82
2021/05/21 04:27:30;;;;;;;2.05;1.20;;;;;;;;;;2096253;28;20040;-80
2021/05/21 04:28:30;;;;;;;1.92;1.10;;;;;;;;;;2096087;28;20040;-82
2021/05/21 04:29:30;;;;;;;1.80;1.20;;;;;;;;;;2096278;28;20048;-83
2021/05/21 04:30:31;;;;;;;1.10;0.90;;;;;;;;;;2095955;28;20064;-81
2021/05/21 04:31:31;;;;;;;1.33;0.88;;;;;;;;;;2089363;28;20048;-82
2021/05/21 04:32:31;;;;;;;1.30;1.20;;;;;;;;;;2087955;28;20045;-82
2021/05/21 04:33:32;;;;;;;2.47;1.10;;;;;;;;;;2087317;28;20053;-81
2021/05/21 04:34:33;;;;;;;2.22;0.90;;;;;;;;;;2078444;28;20037;-81
2021/05/21 04:35:33;;;;;;;1.35;0.95;;;;;;;;;;2086954;28;20063;-81
2021/05/21 04:36:34;;;;;;;1.55;0.85;;;;;;;;;;2088469;28;20790;-83
2021/05/21 04:37:34;;;;;;;3.63;1.25;;;;;;;;;;2088025;28;20045;-82
2021/05/21 04:38:35;;;;;;;1.85;1.17;;;;;;;;;;2088113;28;20486;-82
2021/05/21 04:39:35;;;;;;;2.20;1.08;;;;;;;;;;2087435;28;20044;-81
2021/05/21 04:40:35;;;;;;;2.25;1.10;;;;;;;;;;2086846;28;20139;-81
2021/05/21 04:41:36;;;;;;;1.17;1.10;;;;;;;;;;2087064;28;20040;-82
2021/05/21 04:42:36;;;;;;;1.67;1.05;;;;;;;;;;2087178;28;20044;-81
2021/05/21 04:43:37;;;;;;;1.75;1.10;;;;;;;;;;2095171;28;20123;-82
2021/05/21 04:44:37;;;;;;;2.00;1.33;;;;;;;;;;2088007;28;20532;-82
2021/05/21 04:45:37;;;;;;;1.58;1.00;;;;;;;;;;2090648;28;21081;-83
2021/05/21 04:46:38;;;;;;;1.75;0.80;;;;;;;;;;2100852;28;20044;-81
2021/05/21 04:47:39;;;;;;;2.03;1.20;;;;;;;;;;2095946;28;20090;-83
2021/05/21 04:48:39;;;;;;;1.88;1.05;;;;;;;;;;2096222;28;20655;-83
2021/05/21 04:49:39;;;;;;;1.33;0.90;;;;;;;;;;2095490;28;20512;-82
2021/05/21 04:50:40;;;;;;;1.52;1.10;;;;;;;;;;2096352;28;20401;-82
2021/05/21 04:51:40;;;;;;;3.70;1.00;;;;;;;;;;2096085;28;20477;-81
2021/05/21 04:52:40;;;;;;;3.00;1.10;;;;;;;;;;2093786;28;20064;-81
2021/05/21 04:53:41;;;;;;;2.25;0.85;;;;;;;;;;2094827;28;20052;-81
2021/05/21 04:54:42;;;;;;;1.63;0.93;;;;;;;;;;2095366;28;21062;-82
2021/05/21 04:55:42;;;;;;;3.03;1.10;;;;;;;;;;2095143;28;20037;-82
2021/05/21 04:56:43;;;;;;;3.55;1.20;;;;;;;;;;2095339;28;20044;-82
2021/05/21 04:57:49;;;;;;;1.73;1.25;;;;;;;;;;2095052;28;20082;-81
2021/05/21 04:58:49;;;;;;;2.55;1.30;;;;;;;;;;2096294;28;20021;-82
2021/05/21 04:59:49;;;;;;;2.08;1.10;;;;;;;;;;2095374;28;20056;-82
2021/05/21 05:00:50;;;;;;;3.25;1.20;;;;;;;;;;2088557;28;20394;-81
2021/05/21 05:01:51;;;;;;;1.08;1.00;;;;;;;;;;2091335;28;20047;-83
2021/05/21 05:02:51;;;;;;;1.52;0.98;;;;;;;;;;2089086;28;20040;-83
2021/05/21 05:03:52;;;;;;;1.00;0.90;;;;;;;;;;2088648;28;20057;-82
2021/05/21 05:04:52;;;;;;;1.83;1.20;;;;;;;;;;2096087;28;20043;-82
2021/05/21 05:05:52;;;;;;;2.20;0.95;;;;;;;;;;2095703;28;20060;-81
2021/05/21 05:06:53;;;;;;;1.70;0.88;;;;;;;;;;2087992;28;20099;-81
2021/05/21 05:07:53;;;;;;;1.13;1.02;;;;;;;;;;2087330;28;20502;-82
2021/05/21 05:08:53;;;;;;;1.55;1.00;;;;;;;;;;2079029;28;20041;-82
2021/05/21 05:09:53;;;;;;;1.38;0.98;;;;;;;;;;2087556;28;20053;-81
2021/05/21 05:10:54;;;;;;;0.90;0.82;;;;;;;;;;2087422;28;20045;-82
2021/05/21 05:11:55;;;;;;;1.88;1.15;;;;;;;;;;2087600;28;20112;-82
2021/05/21 05:12:55;;;;;;;2.75;0.98;;;;;;;;;;2087953;28;20032;-82
2021/05/21 05:13:56;;;;;;;2.05;1.00;;;;;;;;;;2088393;28;20347;-82
2021/05/21 05:14:56;;;;;;;1.52;0.98;;;;;;;;;;2086912;28;20521;-82
2021/05/21 05:15:57;;;;;;;3.72;1.00;;;;;;;;;;2087214;28;20140;-82
2021/05/21 05:16:57;;;;;;;2.88;1.20;;;;;;;;;;2087980;28;20062;-82
2021/05/21 05:17:57;;;;;;;1.45;1.35;;;;;;;;;;2087073;28;20048;-82
2021/05/21 05:18:58;;;;;;;2.03;0.90;;;;;;;;;;2087013;28;20041;-82
2021/05/21 05:19:58;;;;;;;1.02;0.93;;;;;;;;;;2087828;28;20495;-82
2021/05/21 05:20:58;;;;;;;2.80;1.10;;;;;;;;;;2088262;28;20041;-81
2021/05/21 05:21:59;;;;;;;2.63;1.08;;;;;;;;;;2088199;28;20492;-82
2021/05/21 05:23:00;;;;;;;3.72;1.20;;;;;;;;;;2087941;28;20095;-81
2021/05/21 05:24:02;;;;;;;1.63;1.20;;;;;;;;;;2087855;28;20059;-82
2021/05/21 05:25:03;;;;;;;2.83;1.00;;;;;;;;;;2096179;28;20657;-83
2021/05/21 05:26:03;;;;;;;3.60;1.02;;;;;;;;;;2096141;28;20044;-82
2021/05/21 05:27:05;;;;;;;3.35;1.20;;;;;;;;;;2096226;28;20075;-81
2021/05/21 05:28:05;;;;;;;1.95;0.90;;;;;;;;;;2095563;28;20037;-81
2021/05/21 05:29:06;;;;;;;1.58;0.82;;;;;;;;;;2086826;28;20053;-82
2021/05/21 05:30:07;;;;;;;1.75;0.70;;;;;;;;;;2095005;28;20044;-82
2021/05/21 05:31:07;;;;;;;2.97;1.00;;;;;;;;;;2090578;28;20039;-82
2021/05/21 05:32:08;;;;;;;2.42;1.23;;;;;;;;;;2088146;28;20047;-81
2021/05/21 05:33:08;;;;;;;3.00;1.10;;;;;;;;;;2095056;28;20036;-81
2021/05/21 05:34:08;;;;;;;1.20;0.70;;;;;;;;;;2095166;28;20036;-82
2021/05/21 05:35:09;;;;;;;1.70;0.93;;;;;;;;;;2088014;28;20041;-82
2021/05/21 05:36:09;;;;;;;3.25;1.40;;;;;;;;;;2087545;28;20044;-82
2021/05/21 05:37:10;;;;;;;1.50;1.00;;;;;;;;;;2088048;28;20170;-81
2021/05/21 05:38:10;;;;;;;2.03;1.08;;;;;;;;;;2094388;28;20048;-81
2021/05/21 05:39:11;;;;;;;1.13;0.75;;;;;;;;;;2095237;28;20643;-82
2021/05/21 05:40:11;;;;;;;2.40;1.00;;;;;;;;;;2087081;28;20040;-80
2021/05/21 05:41:12;;;;;;;1.02;0.70;;;;;;;;;;2087606;28;20041;-81
2021/05/21 05:42:12;;;;;;;1.75;0.80;;;;;;;;;;2087628;28;20106;-82
2021/05/21 05:43:12;;;;;;;3.03;1.10;;;;;;;;;;2087686;28;20043;-82
2021/05/21 05:44:13;;;;;;;4.72;1.08;;;;;;;;;;2087186;28;20098;-81
2021/05/21 05:45:13;;;;;;;2.65;1.08;;;;;;;;;;2087366;28;20487;-82
2021/05/21 05:46:13;;;;;;;2.33;0.80;;;;;;;;;;2093603;28;20440;-82
2021/05/21 05:47:14;;;;;;;1.45;0.77;;;;;;;;;;2094128;28;20040;-81
2021/05/21 05:48:18;;;;;;;1.95;0.90;;;;;;;;;;2094521;28;20190;-80
2021/05/21 05:49:18;;;;;;;1.20;0.90;;;;;;;;;;2094443;28;20036;-81
2021/05/21 05:50:18;;;;;;;0.85;0.85;;;;;;;;;;2086174;28;20101;-81
2021/05/21 05:51:19;;;;;;;1.25;1.05;;;;;;;;;;2087603;28;20516;-81
2021/05/21 05:52:19;;;;;;;1.20;0.90;;;;;;;;;;2087468;28;20056;-81
2021/05/21 05:53:20;;;;;;;1.48;0.90;;;;;;;;;;2087397;28;20131;-82
2021/05/21 05:54:20;;;;;;;1.77;0.88;;;;;;;;;;2094277;28;20051;-81
2021/05/21 05:55:21;;;;;;;1.13;0.80;;;;;;;;;;2094803;28;20052;-80
2021/05/21 05:56:21;;;;;;;0.90;0.80;;;;;;;;;;2087072;28;20641;-82
2021/05/21 05:57:21;;;;;;;1.90;0.88;;;;;;;;;;2086638;28;20041;-82
2021/05/21 05:58:22;;;;;;;1.98;1.02;;;;;;;;;;2086375;28;20041;-81
2021/05/21 05:59:25;;;;;;;2.17;1.00;;;;;;;;;;2094676;28;20399;-80
2021/05/21 06:00:25;;;;;;;2.58;0.90;;;;;;;;;;2093914;28;20437;-80
2021/05/21 06:01:25;;;;;;;1.08;0.90;;;;;;;;;;2086514;28;20041;-81
2021/05/21 06:02:26;;;;;;;2.85;1.00;;;;;;;;;;2087027;28;20090;-82
2021/05/21 06:03:29;;;;;;;2.17;1.00;;;;;;;;;;2086130;28;20473;-80